createdAt,value
2019-06-20T00:02:50.822Z,6.08
2019-06-20T00:07:54.679Z,5.42
2019-06-20T00:13:00.749Z,6.80
2019-06-20T00:18:02.285Z,7.75
2019-06-20T00:23:05.407Z,6.28
2019-06-20T00:28:08.206Z,9.40
2019-06-20T00:33:10.914Z,6.47
2019-06-20T00:38:13.765Z,10.65
2019-06-20T00:43:18.237Z,10.53
2019-06-20T00:48:20.975Z,11.93
2019-06-20T00:53:23.801Z,9.28
2019-06-20T00:58:26.521Z,12.00
2019-06-20T01:03:29.289Z,9.58
2019-06-20T01:08:32.083Z,9.15
2019-06-20T01:13:34.821Z,8.03
2019-06-20T01:18:37.609Z,9.25
2019-06-20T01:23:40.222Z,10.53
2019-06-20T01:28:43.068Z,7.87
2019-06-20T01:33:45.835Z,13.78
2019-06-20T01:38:48.576Z,9.23
2019-06-20T01:43:51.385Z,6.92
2019-06-20T01:48:54.192Z,8.83
2019-06-20T01:53:56.773Z,11.12
2019-06-20T01:58:59.543Z,7.78
2019-06-20T02:04:02.344Z,6.62
2019-06-20T02:09:07.872Z,8.65
2019-06-20T02:14:10.747Z,9.25
2019-06-20T02:19:13.414Z,7.58
2019-06-20T02:24:16.137Z,8.13
2019-06-20T02:29:18.893Z,11.08
2019-06-20T02:34:21.549Z,10.82
2019-06-20T02:39:24.471Z,11.15
2019-06-20T02:44:30.528Z,11.75
2019-06-20T02:49:31.912Z,10.70
2019-06-20T02:54:34.621Z,11.08
2019-06-20T02:59:37.402Z,9.35
2019-06-20T03:04:41.368Z,11.12
2019-06-20T03:09:44.117Z,10.43
2019-06-20T03:14:46.872Z,14.70
2019-06-20T03:19:49.751Z,9.93
2019-06-20T03:24:52.794Z,9.80
2019-06-20T03:29:55.787Z,13.43
2019-06-20T03:34:58.748Z,8.60
2019-06-20T03:40:01.687Z,8.55
2019-06-20T03:45:04.473Z,8.45
2019-06-20T03:50:07.511Z,9.73
2019-06-20T03:55:10.309Z,7.17
2019-06-20T04:00:13.997Z,9.38
2019-06-20T04:05:16.930Z,7.03
2019-06-20T04:10:19.708Z,8.13
2019-06-20T04:15:22.703Z,8.25
2019-06-20T04:20:25.768Z,7.12
2019-06-20T04:25:28.767Z,4.92
2019-06-20T04:30:39.158Z,7.37
2019-06-20T04:35:42.267Z,5.10
2019-06-20T04:40:54.773Z,8.15
2019-06-20T04:46:04.847Z,7.45
2019-06-20T04:51:08.031Z,4.03
2019-06-20T04:56:11.659Z,4.25
2019-06-20T05:01:16.020Z,4.30
2019-06-20T05:06:28.575Z,3.95
2019-06-20T05:17:10.995Z,3.45
2019-06-20T05:22:14.103Z,4.35
2019-06-20T05:27:16.927Z,2.67
2019-06-20T05:32:19.981Z,2.80
2019-06-20T05:38:09.049Z,3.98
2019-06-20T05:43:16.285Z,3.90
2019-06-20T05:48:22.757Z,4.83
2019-06-20T05:53:26.613Z,8.28
2019-06-20T05:58:29.792Z,5.22
2019-06-20T06:03:33.558Z,4.25
2019-06-20T06:08:36.762Z,5.42
2019-06-20T06:13:39.797Z,3.15
2019-06-20T06:25:02.451Z,4.15
2019-06-20T06:30:14.284Z,6.00
2019-06-20T06:35:17.768Z,5.42
2019-06-20T06:40:21.487Z,6.87
2019-06-20T06:45:25.012Z,5.45
2019-06-20T06:50:27.931Z,6.15
2019-06-20T06:55:30.691Z,6.85
2019-06-20T07:00:33.646Z,7.92
2019-06-20T07:05:44.393Z,10.00
2019-06-20T07:10:47.465Z,9.28
2019-06-20T07:15:54.571Z,9.48
2019-06-20T07:20:57.298Z,9.13
2019-06-20T07:26:00.205Z,9.75
2019-06-20T07:31:02.974Z,13.75
2019-06-20T07:36:07.269Z,10.82
2019-06-20T07:41:10.357Z,15.70
2019-06-20T07:46:13.475Z,10.32
2019-06-20T07:51:16.635Z,15.00
2019-06-20T07:56:19.380Z,14.07
2019-06-20T08:01:22.182Z,13.18
2019-06-20T08:06:25.169Z,17.95
2019-06-20T08:11:31.310Z,16.67
2019-06-20T08:16:34.260Z,26.37
2019-06-20T08:21:38.096Z,24.35
2019-06-20T08:26:41.031Z,29.02
2019-06-20T08:31:46.947Z,27.42
2019-06-20T08:36:49.740Z,30.43
2019-06-20T08:41:55.440Z,26.93
2019-06-20T08:47:03.864Z,22.87
2019-06-20T08:52:06.892Z,23.22
2019-06-20T08:57:09.854Z,20.30
2019-06-20T09:02:12.943Z,17.67
2019-06-20T09:07:17.373Z,17.25
2019-06-20T09:12:20.452Z,15.83
2019-06-20T09:17:23.675Z,24.67
2019-06-20T09:22:26.619Z,16.07
2019-06-20T09:27:35.242Z,13.40
2019-06-20T09:32:38.369Z,13.90
2019-06-20T09:37:44.595Z,14.15
2019-06-20T09:42:52.869Z,14.30
2019-06-20T09:47:58.321Z,11.35
2019-06-20T09:53:01.867Z,14.20
2019-06-20T09:58:04.796Z,13.25
2019-06-20T10:03:07.683Z,16.77
2019-06-20T10:08:11.313Z,15.20
2019-06-20T10:13:21.317Z,19.15
2019-06-20T10:18:24.287Z,20.27
2019-06-20T10:23:27.156Z,25.10
2019-06-20T10:28:29.927Z,19.67
2019-06-20T10:33:33.782Z,18.45
2019-06-20T10:38:36.527Z,20.17
2019-06-20T10:43:39.410Z,17.02
2019-06-20T10:48:43.102Z,18.12
2019-06-20T10:53:47.399Z,16.27
2019-06-20T10:58:50.707Z,15.03
2019-06-20T11:03:53.926Z,13.70
2019-06-20T11:08:56.766Z,17.65
2019-06-20T11:14:10.136Z,16.02
2019-06-20T11:19:13.324Z,14.63
2019-06-20T11:24:16.239Z,15.08
2019-06-20T11:29:31.858Z,13.98
2019-06-20T11:34:34.586Z,12.50
2019-06-20T11:39:38.846Z,15.83
2019-06-20T11:44:43.016Z,12.35
2019-06-20T11:49:54.331Z,12.60
2019-06-20T11:54:57.132Z,11.10
2019-06-20T12:00:00.286Z,12.00
2019-06-20T12:05:04.761Z,14.75
2019-06-20T12:10:09.347Z,15.48
2019-06-20T12:15:13.383Z,18.30
2019-06-20T12:20:16.291Z,19.98
2019-06-20T12:25:19.387Z,20.75
2019-06-20T12:30:22.697Z,23.95
2019-06-20T12:35:25.799Z,22.02
2019-06-20T12:40:28.737Z,20.08
2019-06-20T12:45:31.840Z,25.75
2019-06-20T12:50:35.598Z,24.67
2019-06-20T12:55:40.259Z,25.40
2019-06-20T13:00:44.821Z,27.17
2019-06-20T13:05:49.091Z,25.02
2019-06-20T13:10:51.947Z,26.12
2019-06-20T13:16:02.238Z,27.87
2019-06-20T13:21:05.038Z,24.87
2019-06-20T13:26:07.970Z,22.75
2019-06-20T13:31:10.842Z,23.10
2019-06-20T13:36:13.704Z,21.87
2019-06-20T13:41:20.176Z,22.95
2019-06-20T13:46:23.141Z,23.40
2019-06-20T13:51:26.211Z,20.10
2019-06-20T13:56:29.071Z,21.85
2019-06-20T14:01:32.246Z,18.48
2019-06-20T14:06:36.038Z,20.10
2019-06-20T14:11:38.713Z,21.62
2019-06-20T14:16:44.717Z,15.63
2019-06-20T14:21:47.677Z,19.85
2019-06-20T14:26:50.681Z,21.93
2019-06-20T14:31:53.779Z,21.00
2019-06-20T14:36:57.137Z,21.90
2019-06-20T14:42:02.442Z,17.20
2019-06-20T14:47:06.376Z,17.67
2019-06-20T14:52:09.629Z,18.20
2019-06-20T14:57:12.522Z,17.17
2019-06-20T15:02:15.362Z,20.50
2019-06-20T15:07:18.623Z,15.32
2019-06-20T15:12:21.490Z,14.80
2019-06-20T15:17:24.895Z,15.95
2019-06-20T15:22:27.745Z,17.02
2019-06-20T15:27:37.108Z,15.63
2019-06-20T15:32:53.490Z,18.05
2019-06-20T15:37:57.667Z,23.98
2019-06-20T15:43:00.709Z,25.27
2019-06-20T15:48:03.605Z,30.43
2019-06-20T15:53:06.421Z,12.75
2019-06-20T15:58:09.405Z,7.22
2019-06-20T16:03:14.703Z,9.75
2019-06-20T16:08:17.639Z,12.28
2019-06-20T16:13:20.544Z,10.65
2019-06-20T16:18:23.581Z,8.63
2019-06-20T16:23:27.321Z,12.90
2019-06-20T16:28:30.386Z,5.80
2019-06-20T16:33:33.855Z,12.25
2019-06-20T16:38:37.073Z,15.53
2019-06-20T16:43:40.106Z,15.72
2019-06-20T16:48:47.288Z,16.95
2019-06-20T16:53:53.610Z,17.52
2019-06-20T16:59:00.105Z,15.10
2019-06-20T17:04:04.699Z,8.30
2019-06-20T17:09:07.952Z,7.28
2019-06-20T17:14:11.309Z,8.83
2019-06-20T17:19:14.248Z,8.15
2019-06-20T17:24:17.270Z,6.47
2019-06-20T17:29:20.058Z,6.87
2019-06-20T17:34:23.145Z,6.85
2019-06-20T17:39:26.304Z,7.75
2019-06-20T17:44:29.318Z,3.55
2019-06-20T17:49:32.226Z,4.90
2019-06-20T17:54:35.022Z,4.22
2019-06-20T17:59:37.813Z,4.62
2019-06-20T18:04:40.989Z,4.53
2019-06-20T18:09:43.789Z,4.85
2019-06-20T18:14:48.812Z,3.12
2019-06-20T18:19:51.854Z,6.58
2019-06-20T18:24:54.868Z,5.03
2019-06-20T18:29:57.805Z,4.75
2019-06-20T18:35:02.228Z,4.87
2019-06-20T18:40:06.521Z,5.60
2019-06-20T18:45:11.379Z,4.67
2019-06-20T18:50:15.421Z,5.95
2019-06-20T18:55:20.010Z,5.67
2019-06-20T19:00:34.209Z,4.17
2019-06-20T19:05:29.399Z,4.53
2019-06-20T19:10:33.702Z,5.92
2019-06-20T19:15:37.585Z,4.70
2019-06-20T19:20:49.061Z,7.55
2019-06-20T19:25:58.053Z,6.42
2019-06-20T19:31:00.786Z,3.83
2019-06-20T19:36:03.757Z,7.80
2019-06-20T19:41:06.734Z,2.95
2019-06-20T19:46:09.809Z,3.40
2019-06-20T19:51:12.850Z,4.83
2019-06-20T19:56:15.549Z,3.55
2019-06-20T20:01:18.487Z,2.92
2019-06-20T20:06:21.319Z,3.47
2019-06-20T20:11:26.437Z,3.05
2019-06-20T20:16:29.227Z,5.47
2019-06-20T20:21:32.090Z,3.05
2019-06-20T20:26:34.993Z,4.00
2019-06-20T20:31:37.979Z,8.27
2019-06-20T20:36:40.795Z,1.17
2019-06-20T20:41:44.590Z,3.80
2019-06-20T20:46:53.215Z,3.80
2019-06-20T20:51:56.854Z,4.97
2019-06-20T20:57:00.763Z,2.70
2019-06-20T21:02:03.682Z,5.85
2019-06-20T21:07:07.697Z,6.40
2019-06-20T21:12:10.515Z,2.87
2019-06-20T21:17:13.421Z,2.40
2019-06-20T21:22:16.315Z,5.65
2019-06-20T21:27:19.527Z,2.93
2019-06-20T21:32:22.294Z,5.53
2019-06-20T21:37:25.130Z,5.25
2019-06-20T21:42:27.950Z,2.98
2019-06-20T21:47:30.676Z,7.07
2019-06-20T21:52:33.332Z,3.25
2019-06-20T21:57:36.106Z,5.30
2019-06-20T22:02:39.964Z,3.07
2019-06-20T22:07:42.966Z,5.67
2019-06-20T22:12:45.703Z,6.45
2019-06-20T22:17:48.779Z,2.63
2019-06-20T22:22:53.186Z,5.10
2019-06-20T22:27:56.089Z,7.30
2019-06-20T22:32:59.303Z,14.10
2019-06-20T22:38:02.073Z,5.85
2019-06-20T22:43:04.950Z,8.63
2019-06-20T22:48:08.050Z,2.90
2019-06-20T22:53:10.819Z,4.35
2019-06-20T22:58:13.637Z,7.37
2019-06-20T23:03:16.358Z,6.08
2019-06-20T23:08:19.116Z,6.35
2019-06-20T23:13:22.411Z,6.17
2019-06-20T23:18:25.340Z,6.08
2019-06-20T23:23:40.095Z,2.95
2019-06-20T23:28:42.911Z,5.47
2019-06-20T23:33:45.702Z,6.08
2019-06-20T23:38:48.679Z,8.50
2019-06-20T23:43:51.474Z,3.87
2019-06-20T23:48:54.365Z,6.70
2019-06-20T23:53:57.324Z,6.30
2019-06-20T23:59:00.102Z,7.37
